Time;durP1;ratioP1;P1;durP2;ratioP2;P2;SDS_P1;SDS_P2;PMS_P1;PMS_P2;Temp;Humidity;BMP_temperature;BMP_pressure;BME280_temperature;BME280_humidity;BME280_pressure;Samples;Min_cycle;Max_cycle;Signal;HPM_P1;HPM_P2
2022/11/19 07:14:19;;;;;;;;;;;;;;;11.71;61.80;96267.28;4210239;27;10254;-67
2022/11/19 07:16:22;;;;;;;;;;;;;;;12.01;61.09;96265.69;4207642;28;5872;-66
2022/11/19 07:18:25;;;;;;;;;;;;;;;12.23;60.85;96271.41;4197861;28;6062;-67
2022/11/19 07:20:28;;;;;;;;;;;;;;;12.42;60.83;96273.09;4206266;28;6613;-67
2022/11/19 07:22:31;;;;;;;;;;;;;;;12.57;60.51;96274.59;4210243;28;5075;-65
2022/11/19 07:24:34;;;;;;;;;;;;;;;12.69;60.07;96281.66;4203560;28;5908;-65
2022/11/19 07:26:37;;;;;;;;;;;;;;;12.80;59.92;96278.28;4208080;28;5687;-65
2022/11/19 07:28:40;;;;;;;;;;;;;;;12.86;59.77;96278.41;4207018;28;5874;-65
2022/11/19 07:30:44;;;;;;;;;;;;;;;12.89;59.69;96281.44;4205481;28;5834;-65
2022/11/19 07:32:47;;;;;;;;;;;;;;;12.93;59.75;96284.47;4207102;28;5718;-65
2022/11/19 07:34:50;;;;;;;;;;;;;;;12.98;59.31;96287.28;4204218;28;5873;-65
2022/11/19 07:36:53;;;;;;;;;;;;;;;13.01;59.40;96289.47;4202589;28;5804;-65
2022/11/19 07:38:55;;;;;;;;;;;;;;;13.05;59.27;96283.53;4206595;28;5761;-65
2022/11/19 07:40:58;;;;;;;;;;;;;;;13.12;58.93;96297.50;4211689;28;5837;-65
2022/11/19 07:43:00;;;;;;;;;;;;;;;13.15;59.17;96296.28;4210887;28;5702;-65
2022/11/19 07:45:03;;;;;;;;;;;;;;;13.18;58.90;96292.38;4208081;28;5770;-65
2022/11/19 07:47:08;;;;;;;;;;;;;;;13.21;58.79;96297.25;4208649;28;5753;-65
2022/11/19 07:49:11;;;;;;;;;;;;;;;13.21;58.76;96294.59;4213036;28;5683;-65
2022/11/19 07:51:14;;;;;;;;;;;;;;;13.24;58.46;96300.28;4203561;28;5717;-65
2022/11/19 07:53:16;;;;;;;;;;;;;;;13.26;58.32;96295.56;4209205;28;5735;-65
2022/11/19 07:55:19;;;;;;;;;;;;;;;13.28;58.40;96295.34;4207044;28;5883;-65
2022/11/19 07:57:22;;;;;;;;;;;;;;;13.30;58.05;96299.41;4207525;28;5889;-65
2022/11/19 07:59:32;;;;;;;;;;;;;;;13.32;58.24;96294.66;4205990;28;5699;-65
2022/11/19 08:01:34;;;;;;;;;;;;;;;13.34;57.86;96294.44;4205437;28;5901;-65
2022/11/19 08:03:41;;;;;;;;;;;;;;;13.35;57.92;96304.03;4202635;28;5677;-65
2022/11/19 08:05:46;;;;;;;;;;;;;;;13.35;57.90;96299.53;4211632;28;5695;-65
2022/11/19 08:07:48;;;;;;;;;;;;;;;13.35;57.87;96299.53;4211867;28;5695;-65
2022/11/19 08:09:51;;;;;;;;;;;;;;;13.34;57.49;96300.56;4213326;28;5698;-65
2022/11/19 08:11:54;;;;;;;;;;;;;;;13.35;57.44;96298.72;4214203;28;6495;-65
2022/11/19 08:13:58;;;;;;;;;;;;;;;13.35;57.36;96298.72;4198320;28;5652;-65
2022/11/19 08:16:02;;;;;;;;;;;;;;;13.34;57.46;96294.44;4189869;28;5795;-65
2022/11/19 08:18:14;;;;;;;;;;;;;;;13.34;57.15;96300.56;4185748;28;5810;-65
2022/11/19 08:20:18;;;;;;;;;;;;;;;13.28;57.09;96300.66;4186116;28;5815;-65
2022/11/19 08:22:21;;;;;;;;;;;;;;;13.25;57.24;96295.78;4186297;28;5844;-65
2022/11/19 08:24:24;;;;;;;;;;;;;;;13.24;56.68;96296.81;4185977;28;5851;-65
2022/11/19 08:26:27;;;;;;;;;;;;;;;13.17;56.96;96299.53;4186091;28;5829;-65
2022/11/19 08:28:30;;;;;;;;;;;;;;;13.19;56.97;96297.47;4186054;28;5818;-65
2022/11/19 08:30:33;;;;;;;;;;;;;;;13.20;56.59;96288.47;4186210;28;5728;-65
2022/11/19 08:32:36;;;;;;;;;;;;;;;13.23;56.83;96290.69;4185820;28;5708;-65
2022/11/19 08:34:39;;;;;;;;;;;;;;;13.25;56.71;96280.69;4185937;28;5716;-65
2022/11/19 08:36:44;;;;;;;;;;;;;;;13.28;56.58;96285.53;4186090;28;5716;-65
2022/11/19 08:38:46;;;;;;;;;;;;;;;13.31;56.32;96287.75;4188054;28;5850;-65
2022/11/19 08:40:52;;;;;;;;;;;;;;;13.33;56.33;96284.88;4199533;28;5716;-64
2022/11/19 08:42:59;;;;;;;;;;;;;;;13.35;56.43;96286.25;4199481;28;5767;-64
2022/11/19 08:45:02;;;;;;;;;;;;;;;13.38;56.02;96293.00;4197176;28;5887;-64
2022/11/19 08:47:05;;;;;;;;;;;;;;;13.40;56.10;96289.06;4193271;28;5732;-64
2022/11/19 08:49:08;;;;;;;;;;;;;;;13.45;56.16;96295.53;4195596;28;5708;-64
2022/11/19 08:51:13;;;;;;;;;;;;;;;13.47;56.00;96296.13;4189747;28;5716;-64
2022/11/19 08:53:17;;;;;;;;;;;;;;;13.50;55.77;96287.75;4190768;28;5712;-65
2022/11/19 08:55:20;;;;;;;;;;;;;;;13.50;55.91;96285.09;4198440;28;5707;-64
2022/11/19 08:57:23;;;;;;;;;;;;;;;13.52;55.67;96288.31;4194784;28;5683;-64
2022/11/19 08:59:26;;;;;;;;;;;;;;;13.51;55.77;96292.00;4201947;28;5773;-64
2022/11/19 09:01:29;;;;;;;;;;;;;;;13.52;55.48;96290.97;4191170;28;5938;-64
2022/11/19 09:03:32;;;;;;;;;;;;;;;13.51;55.70;96289.34;4187561;28;5950;-64
2022/11/19 09:05:35;;;;;;;;;;;;;;;13.54;55.44;96288.91;4200517;28;6775;-64
2022/11/19 09:07:37;;;;;;;;;;;;;;;13.54;55.12;96295.03;4189836;28;5795;-64
2022/11/19 09:09:42;;;;;;;;;;;;;;;13.57;55.43;96291.09;4184842;28;5708;-64
2022/11/19 09:11:44;;;;;;;;;;;;;;;13.57;55.23;96293.75;4189982;28;5801;-64
2022/11/19 09:13:48;;;;;;;;;;;;;;;13.58;55.06;96298.03;4201202;28;5679;-65
2022/11/19 09:15:51;;;;;;;;;;;;;;;13.60;54.91;96288.03;4191894;28;5794;-65
2022/11/19 09:17:54;;;;;;;;;;;;;;;13.60;55.10;96296.00;4193095;28;5703;-66
2022/11/19 09:19:56;;;;;;;;;;;;;;;13.62;54.97;96291.25;4194636;28;5819;-66
2022/11/19 09:21:59;;;;;;;;;;;;;;;13.64;54.65;96302.47;4201663;28;5079;-66
2022/11/19 09:24:02;;;;;;;;;;;;;;;13.60;54.84;96293.34;4193675;28;5766;-65
2022/11/19 09:26:10;;;;;;;;;;;;;;;13.59;54.75;96299.66;4192244;28;5743;-66
2022/11/19 09:28:13;;;;;;;;;;;;;;;13.61;54.36;96295.75;4184862;28;5721;-65
2022/11/19 09:30:16;;;;;;;;;;;;;;;13.64;54.29;96297.97;4185483;28;5783;-65
2022/11/19 09:32:19;;;;;;;;;;;;;;;13.67;54.52;96294.84;4198723;28;6633;-66
2022/11/19 09:34:27;;;;;;;;;;;;;;;13.69;54.41;96299.94;4198692;28;5925;-66
2022/11/19 09:36:30;;;;;;;;;;;;;;;13.69;54.27;96297.28;4200012;28;5845;-66
2022/11/19 09:38:33;;;;;;;;;;;;;;;13.69;54.00;96294.63;4194595;28;5704;-65
2022/11/19 09:40:36;;;;;;;;;;;;;;;13.71;53.90;96303.19;4190019;28;5781;-66
2022/11/19 09:42:49;;;;;;;;;;;;;;;13.72;54.02;96307.47;4201034;28;5679;-65
2022/11/19 09:45:18;;;;;;;;;;;;;;;13.71;54.04;96297.88;4194885;28;5823;-65
2022/11/19 09:47:32;;;;;;;;;;;;;;;13.71;53.68;96295.22;4192701;28;5786;-65
2022/11/19 09:49:38;;;;;;;;;;;;;;;13.69;53.73;96302.59;4200713;28;6003;-66
2022/11/19 09:51:46;;;;;;;;;;;;;;;13.68;53.92;96299.13;4193863;28;5094;-65
2022/11/19 09:53:54;;;;;;;;;;;;;;;13.69;53.70;96302.59;4191917;28;5557;-65
2022/11/19 09:55:58;;;;;;;;;;;;;;;13.72;53.44;96304.81;4192816;28;7769;-65
2022/11/19 09:58:06;;;;;;;;;;;;;;;13.73;53.62;96292.34;4192949;28;5805;-65
2022/11/19 10:00:13;;;;;;;;;;;;;;;13.75;53.33;96304.38;4201094;28;5695;-65
2022/11/19 10:02:18;;;;;;;;;;;;;;;13.77;53.42;96301.47;4192825;28;5837;-65
2022/11/19 10:04:23;;;;;;;;;;;;;;;13.77;53.24;96304.94;4187813;28;5769;-64
2022/11/19 10:06:30;;;;;;;;;;;;;;;13.79;53.30;96313.50;4195303;28;5742;-64
2022/11/19 10:08:48;;;;;;;;;;;;;;;13.77;52.95;96299.63;4189788;28;5708;-65
2022/11/19 10:11:01;;;;;;;;;;;;;;;13.78;53.15;96301.25;4188079;28;5731;-64
2022/11/19 10:13:19;;;;;;;;;;;;;;;13.74;52.79;96305.41;4199921;28;5667;-64
2022/11/19 10:15:28;;;;;;;;;;;;;;;13.71;52.91;96300.53;4199227;28;5679;-64
2022/11/19 10:17:50;;;;;;;;;;;;;;;13.71;52.94;96300.53;4188315;28;5699;-64
2022/11/19 10:20:10;;;;;;;;;;;;;;;13.72;52.67;96307.47;4194764;28;5806;-65
2022/11/19 10:22:21;;;;;;;;;;;;;;;13.75;52.82;96300.91;4192541;28;5713;-65
2022/11/19 10:24:34;;;;;;;;;;;;;;;13.78;52.57;96295.94;4192559;28;5872;-65
2022/11/19 10:26:40;;;;;;;;;;;;;;;13.80;52.70;96287.72;4192573;28;5698;-65
2022/11/19 10:28:52;;;;;;;;;;;;;;;13.82;52.45;96294.47;4192740;28;5684;-64
2022/11/19 10:30:58;;;;;;;;;;;;;;;13.83;52.56;96295.28;4194691;28;5732;-66
2022/11/19 10:33:07;;;;;;;;;;;;;;;13.84;52.29;96283.59;4192332;28;5802;-66
2022/11/19 10:35:16;;;;;;;;;;;;;;;13.76;52.16;96289.22;4191979;28;5712;-66
2022/11/19 10:37:22;;;;;;;;;;;;;;;13.74;52.02;96288.66;4193176;28;5798;-65
2022/11/19 10:39:31;;;;;;;;;;;;;;;13.75;52.03;96288.41;4190255;28;5716;-65
2022/11/19 10:41:37;;;;;;;;;;;;;;;13.76;52.33;96291.88;4195270;28;5790;-65
2022/11/19 10:43:46;;;;;;;;;;;;;;;13.80;52.27;96290.38;4196519;28;5728;-65
2022/11/19 10:45:51;;;;;;;;;;;;;;;13.82;51.97;96294.47;4197549;28;5694;-65
2022/11/19 10:48:01;;;;;;;;;;;;;;;13.83;51.84;96293.44;4194783;28;5720;-65
2022/11/19 10:50:17;;;;;;;;;;;;;;;13.86;51.70;96295.63;4183768;28;5716;-65
2022/11/19 10:52:27;;;;;;;;;;;;;;;13.86;51.91;96295.63;4193561;28;5695;-65
2022/11/19 10:54:31;;;;;;;;;;;;;;;13.85;51.86;96286.03;4200255;28;5801;-65
2022/11/19 10:56:38;;;;;;;;;;;;;;;13.84;51.87;96295.03;4197350;28;5716;-65
2022/11/19 10:58:47;;;;;;;;;;;;;;;13.84;51.54;96294.25;4188304;28;6501;-65
2022/11/19 11:00:53;;;;;;;;;;;;;;;13.81;51.69;96295.47;4199801;28;5800;-65
2022/11/19 11:03:01;;;;;;;;;;;;;;;13.79;51.77;96281.59;4187071;28;5731;-65
2022/11/19 11:05:11;;;;;;;;;;;;;;;13.78;51.39;96287.97;4187346;28;5774;-65
2022/11/19 11:07:14;;;;;;;;;;;;;;;13.75;51.22;96285.75;4187530;28;5716;-65
2022/11/19 11:09:29;;;;;;;;;;;;;;;13.74;51.50;96286.81;4186061;28;6357;-65
2022/11/19 11:16:15;;;;;;;;;;;;;;;13.79;51.29;96270.97;4187705;28;7212;-66
2022/11/19 11:18:19;;;;;;;;;;;;;;;13.80;51.36;96275.25;4186199;28;5866;-66
2022/11/19 11:20:25;;;;;;;;;;;;;;;13.82;51.18;96275.88;4194523;28;5702;-66
2022/11/19 11:22:29;;;;;;;;;;;;;;;13.84;51.20;96272.97;4192898;28;5695;-66
2022/11/19 11:24:34;;;;;;;;;;;;;;;13.83;50.97;96269.50;4198729;28;5687;-66
2022/11/19 11:26:38;;;;;;;;;;;;;;;13.85;51.17;96275.41;4197532;28;5948;-65
2022/11/19 11:28:54;;;;;;;;;;;;;;;13.90;50.88;96266.75;4195501;28;5695;-65
2022/11/19 11:30:59;;;;;;;;;;;;;;;13.94;50.89;96265.28;4199209;28;5708;-65
2022/11/19 11:33:25;;;;;;;;;;;;;;;13.95;50.78;96269.56;4195401;28;6733;-65
2022/11/19 11:35:31;;;;;;;;;;;;;;;13.96;50.93;96265.84;4194947;28;6560;-65
2022/11/19 11:37:35;;;;;;;;;;;;;;;13.98;50.96;96271.75;4191040;28;5793;-65
2022/11/19 11:39:42;;;;;;;;;;;;;;;13.99;51.02;96260.06;4199741;28;5695;-65
2022/11/19 11:41:49;;;;;;;;;;;;;;;14.01;50.91;96262.50;4193359;28;5727;-66
2022/11/19 11:44:18;;;;;;;;;;;;;;;14.00;50.71;96259.03;4186553;28;5813;-64
2022/11/19 11:46:21;;;;;;;;;;;;;;;14.01;50.81;96265.97;4192473;28;5778;-65
2022/11/19 11:48:29;;;;;;;;;;;;;;;13.99;50.76;96260.88;4198523;28;5695;-65
2022/11/19 11:50:31;;;;;;;;;;;;;;;14.01;50.68;96263.31;4197952;28;5815;-65
2022/11/19 11:52:39;;;;;;;;;;;;;;;13.98;50.67;96256.59;4202133;28;5822;-64
2022/11/19 11:55:00;;;;;;;;;;;;;;;13.97;50.76;96260.31;4202010;28;5690;-65
2022/11/19 11:57:17;;;;;;;;;;;;;;;13.96;50.69;96257.88;4186330;28;5716;-65
2022/11/19 11:59:28;;;;;;;;;;;;;;;13.94;50.81;96263.44;4186581;28;5737;-64
2022/11/19 12:01:30;;;;;;;;;;;;;;;13.93;50.68;96261.81;4202064;28;5805;-65
2022/11/19 12:03:35;;;;;;;;;;;;;;;13.92;50.97;96249.53;4201867;28;5703;-65
2022/11/19 12:06:11;;;;;;;;;;;;;;;13.92;50.85;96252.19;4199525;28;5783;-65
2022/11/19 12:08:26;;;;;;;;;;;;;;;13.95;50.87;96251.75;4192033;28;5774;-65
2022/11/19 12:10:39;;;;;;;;;;;;;;;13.96;50.52;96250.72;4197292;28;5782;-65
2022/11/19 12:12:49;;;;;;;;;;;;;;;13.97;50.76;96244.38;4188866;28;6398;-65
2022/11/19 12:14:58;;;;;;;;;;;;;;;14.03;50.34;96244.47;4185360;28;5829;-66
2022/11/19 12:17:17;;;;;;;;;;;;;;;14.04;50.27;96241.59;4186310;28;5799;-65
2022/11/19 12:19:41;;;;;;;;;;;;;;;14.05;50.30;96245.09;4197924;28;5690;-65
2022/11/19 12:21:56;;;;;;;;;;;;;;;14.01;50.31;96241.25;4201519;28;5694;-65
2022/11/19 12:24:15;;;;;;;;;;;;;;;14.01;50.47;96242.06;4193173;28;5789;-65
2022/11/19 12:26:26;;;;;;;;;;;;;;;14.03;50.02;96239.16;4200715;28;5694;-65
2022/11/19 12:28:41;;;;;;;;;;;;;;;14.00;50.03;96237.78;4196349;28;5687;-65
2022/11/19 12:30:54;;;;;;;;;;;;;;;14.05;50.07;96243.25;4193318;28;5710;-65
2022/11/19 12:33:16;;;;;;;;;;;;;;;14.07;49.53;96245.66;4194478;28;5776;-65
2022/11/19 12:35:36;;;;;;;;;;;;;;;14.07;49.41;96245.66;4197807;28;5738;-65
2022/11/19 12:37:54;;;;;;;;;;;;;;;14.07;49.45;96246.47;4192256;28;5792;-65
2022/11/19 12:40:08;;;;;;;;;;;;;;;14.09;49.32;96249.69;4196519;28;5696;-66
2022/11/19 12:42:29;;;;;;;;;;;;;;;14.13;49.22;96244.72;4198104;28;5785;-65
2022/11/19 12:44:47;;;;;;;;;;;;;;;14.15;49.54;96242.66;4199804;28;5761;-66
2022/11/19 12:46:56;;;;;;;;;;;;;;;14.20;49.31;96245.44;4187287;28;5897;-65
2022/11/19 12:49:37;;;;;;;;;;;;;;;14.20;49.59;96248.09;4197959;28;5819;-65
2022/11/19 12:51:52;;;;;;;;;;;;;;;14.19;49.42;96246.50;4191529;28;5687;-65
2022/11/19 12:54:09;;;;;;;;;;;;;;;14.15;49.34;96247.97;4187291;28;5732;-66
2022/11/19 12:56:32;;;;;;;;;;;;;;;14.15;49.35;96253.28;4185094;28;5806;-65
2022/11/19 12:58:47;;;;;;;;;;;;;;;14.14;49.33;96251.66;4187710;28;5782;-65
2022/11/19 13:00:55;;;;;;;;;;;;;;;14.14;49.34;96246.34;4193096;28;6376;-65
2022/11/19 13:03:10;;;;;;;;;;;;;;;14.13;49.72;96247.38;4200455;28;5774;-65
2022/11/19 13:05:17;;;;;;;;;;;;;;;14.14;49.69;96243.69;4196581;28;5786;-65
2022/11/19 13:07:25;;;;;;;;;;;;;;;14.14;49.54;96247.16;4191294;28;5694;-65
2022/11/19 13:09:35;;;;;;;;;;;;;;;14.13;49.55;96253.50;4186705;28;6076;-65
2022/11/19 13:11:43;;;;;;;;;;;;;;;14.14;49.70;96256.97;4185258;28;6886;-65
2022/11/19 13:13:51;;;;;;;;;;;;;;;14.14;49.52;96244.50;4195281;28;7156;-65
2022/11/19 13:15:59;;;;;;;;;;;;;;;14.18;49.67;96247.53;4198818;28;7741;-65
2022/11/19 13:18:08;;;;;;;;;;;;;;;14.20;49.41;96250.75;4185127;28;5720;-66
2022/11/19 13:20:18;;;;;;;;;;;;;;;14.20;49.58;96250.75;4184207;28;5847;-66
2022/11/19 13:22:29;;;;;;;;;;;;;;;14.17;49.29;96244.06;4191320;28;5815;-66
2022/11/19 13:24:35;;;;;;;;;;;;;;;14.17;49.26;96240.59;4198938;28;5711;-66
2022/11/19 13:26:38;;;;;;;;;;;;;;;14.19;49.16;96247.28;4189411;28;5901;-66
2022/11/19 13:28:46;;;;;;;;;;;;;;;14.20;49.20;96245.44;4187474;28;5799;-65
2022/11/19 13:30:53;;;;;;;;;;;;;;;14.22;49.33;96243.38;4194269;28;6386;-65
2022/11/19 13:33:03;;;;;;;;;;;;;;;14.22;49.37;96243.38;4200907;28;5683;-65
2022/11/19 13:35:16;;;;;;;;;;;;;;;14.19;49.31;96243.84;4196053;28;5712;-65
2022/11/19 13:37:33;;;;;;;;;;;;;;;14.16;49.20;96244.28;4197048;28;5786;-66
2022/11/19 13:39:39;;;;;;;;;;;;;;;14.14;49.07;96238.38;4198516;28;5786;-66
2022/11/19 13:46:33;;;;;;;;;;;;;;;14.16;48.92;96241.63;4188558;28;5704;-65
2022/11/19 13:48:41;;;;;;;;;;;;;;;14.15;49.03;96245.31;4186131;28;5732;-65
2022/11/19 13:50:47;;;;;;;;;;;;;;;14.10;48.68;96237.22;4192465;28;5703;-65
2022/11/19 13:52:59;;;;;;;;;;;;;;;14.03;48.41;96247.13;4198987;28;5782;-65
2022/11/19 13:55:02;;;;;;;;;;;;;;;13.99;48.36;96239.63;4193983;28;5703;-65
2022/11/19 13:57:07;;;;;;;;;;;;;;;13.98;48.34;96231.88;4190272;28;5778;-65
2022/11/19 13:59:26;;;;;;;;;;;;;;;14.01;48.32;96235.94;4192748;28;6449;-65
2022/11/19 14:02:04;;;;;;;;;;;;;;;14.04;48.07;96235.47;4197105;28;5817;-65
2022/11/19 14:04:26;;;;;;;;;;;;;;;14.05;48.14;96226.47;4191923;28;5732;-65
2022/11/19 14:06:39;;;;;;;;;;;;;;;14.06;48.10;96236.88;4193703;28;5790;-65
2022/11/19 14:08:59;;;;;;;;;;;;;;;14.10;48.15;96235.38;4185642;28;5846;-65
2022/11/19 14:11:19;;;;;;;;;;;;;;;14.11;48.05;96231.69;4197973;28;5694;-66
2022/11/19 14:13:42;;;;;;;;;;;;;;;14.13;47.84;96234.09;4187864;28;5699;-65
2022/11/19 14:28:37;;;;;;;;;;;;;;;14.11;47.80;96258.25;4198971;28;5682;-65
2022/11/19 14:31:01;;;;;;;;;;;;;;;14.07;47.97;96253.63;4190328;28;5707;-66
2022/11/19 14:33:56;;;;;;;;;;;;;;;14.08;47.75;96253.41;4192568;28;5699;-66
2022/11/19 14:35:59;;;;;;;;;;;;;;;14.09;47.63;96248.91;4190132;28;5857;-65
2022/11/19 14:38:24;;;;;;;;;;;;;;;14.09;47.88;96254.22;4195967;28;5826;-66
2022/11/19 14:40:29;;;;;;;;;;;;;;;14.10;48.06;96245.19;4192027;28;5703;-65
2022/11/19 14:44:06;;;;;;;;;;;;;;;14.11;47.74;96257.44;4184583;28;5808;-66
2022/11/19 14:45:18;;;;;;;;;;;;;;;14.13;47.72;96255.38;4183608;28;6057;-66
2022/11/19 14:47:34;;;;;;;;;;;;;;;14.14;48.04;96259.63;4184437;28;5760;-66
2022/11/19 14:49:37;;;;;;;;;;;;;;;14.14;47.91;96259.63;4191119;28;5863;-66
2022/11/19 14:51:41;;;;;;;;;;;;;;;14.14;47.71;96262.31;4199441;28;5971;-66
2022/11/19 14:53:49;;;;;;;;;;;;;;;14.17;47.66;96264.53;4196148;28;5082;-66
2022/11/19 14:55:53;;;;;;;;;;;;;;;14.17;47.74;96267.19;4194928;28;5706;-65
2022/11/19 14:58:01;;;;;;;;;;;;;;;14.18;47.96;96274.13;4199306;28;5682;-65
2022/11/19 15:00:07;;;;;;;;;;;;;;;14.18;47.59;96266.13;4190221;28;5705;-66
2022/11/19 15:02:24;;;;;;;;;;;;;;;14.17;47.71;96268.00;4192720;28;6413;-66
2022/11/19 15:04:33;;;;;;;;;;;;;;;14.16;47.54;96270.88;4191209;28;5936;-66
2022/11/19 15:06:37;;;;;;;;;;;;;;;14.16;47.53;96276.19;4191920;28;5722;-65
2022/11/19 15:08:47;;;;;;;;;;;;;;;14.15;47.54;96277.19;4194195;28;5770;-65
2022/11/19 15:11:04;;;;;;;;;;;;;;;14.13;47.55;96272.13;4199084;28;5755;-65
2022/11/19 15:13:33;;;;;;;;;;;;;;;14.15;47.49;96282.53;4194110;28;6515;-65
2022/11/19 15:15:41;;;;;;;;;;;;;;;14.14;47.17;96278.25;4188719;28;5814;-65
2022/11/19 15:17:45;;;;;;;;;;;;;;;14.11;47.35;96284.03;4191892;28;5778;-66
2022/11/19 15:20:01;;;;;;;;;;;;;;;14.03;46.86;96279.03;4194367;28;5727;-65
2022/11/19 15:22:32;;;;;;;;;;;;;;;13.92;47.10;96281.41;4187224;28;5939;-66
2022/11/19 15:24:56;;;;;;;;;;;;;;;13.93;47.45;96288.38;4200038;28;5813;-66
2022/11/19 15:27:10;;;;;;;;;;;;;;;13.95;47.02;96291.63;4196937;28;5785;-64
2022/11/19 15:29:22;;;;;;;;;;;;;;;13.99;46.93;96297.28;4187469;28;5732;-64
2022/11/19 15:31:47;;;;;;;;;;;;;;;13.92;47.02;96286.72;4199841;28;5766;-64
2022/11/19 15:34:23;;;;;;;;;;;;;;;13.93;47.24;96292.84;4201714;28;5804;-65
2022/11/19 15:36:32;;;;;;;;;;;;;;;13.83;47.23;96293.44;4167146;28;5760;-65
2022/11/19 15:38:39;;;;;;;;;;;;;;;13.81;46.96;96295.47;4159538;28;5821;-65
2022/11/19 15:40:43;;;;;;;;;;;;;;;13.83;46.95;96293.44;4166784;28;6683;-64
2022/11/19 15:42:51;;;;;;;;;;;;;;;13.84;46.98;96295.03;4158661;28;5872;-65
2022/11/19 15:45:01;;;;;;;;;;;;;;;13.84;47.20;96297.69;4161768;28;5886;-64
2022/11/19 15:47:11;;;;;;;;;;;;;;;13.80;46.85;96304.47;4158229;28;5999;-65
2022/11/19 15:49:20;;;;;;;;;;;;;;;13.72;47.02;96296.84;4165747;28;5762;-65
2022/11/19 15:51:24;;;;;;;;;;;;;;;13.76;47.08;96295.34;4165171;28;5952;-64
2022/11/19 15:53:27;;;;;;;;;;;;;;;13.73;47.11;96302.97;4151458;28;5927;-65
2022/11/19 15:55:31;;;;;;;;;;;;;;;13.69;47.31;96295.44;4152620;28;6058;-65
2022/11/19 15:57:39;;;;;;;;;;;;;;;13.70;47.09;96301.53;4151123;28;5934;-65
2022/11/19 15:59:44;;;;;;;;;;;;;;;13.65;47.23;96307.53;4158280;28;5929;-65
2022/11/19 16:01:59;;;;;;;;;;;;;;;13.61;47.09;96300.25;4164678;28;5765;-65
2022/11/19 16:04:06;;;;;;;;;;;;;;;13.59;47.35;96308.47;4151708;28;5902;-65
2022/11/19 16:06:15;;;;;;;;;;;;;;;13.63;47.20;96303.50;4167637;28;6583;-65
2022/11/19 16:08:18;;;;;;;;;;;;;;;13.64;47.51;96310.44;4151039;28;5877;-65
2022/11/19 16:10:28;;;;;;;;;;;;;;;13.67;47.19;96312.63;4160954;28;5845;-65
2022/11/19 16:17:34;;;;;;;;;;;;;;;13.69;47.19;96318.53;4186248;28;5807;-65
2022/11/19 16:20:01;;;;;;;;;;;;;;;13.67;47.13;96320.59;4189345;28;5750;-65
2022/11/19 16:22:05;;;;;;;;;;;;;;;13.61;47.20;96324.97;4193304;28;5781;-65
2022/11/19 16:26:36;;;;;;;;;;;;;;;13.41;47.41;96321.75;4197441;28;5895;-65
2022/11/19 16:28:39;;;;;;;;;;;;;;;13.37;47.06;96326.69;4194279;28;5700;-65
2022/11/19 16:30:46;;;;;;;;;;;;;;;13.21;47.51;96337.88;4198202;28;5771;-65
2022/11/19 16:32:50;;;;;;;;;;;;;;;13.13;47.30;96333.63;4185842;28;5723;-65
2022/11/19 16:35:08;;;;;;;;;;;;;;;13.06;47.50;96340.06;4199285;28;5699;-65
2022/11/19 16:37:16;;;;;;;;;;;;;;;12.95;47.20;96340.78;4194096;28;5698;-66
2022/11/19 16:39:23;;;;;;;;;;;;;;;12.82;47.35;96350.50;4201387;28;5805;-65
2022/11/19 16:43:48;;;;;;;;;;;;;;;12.64;47.41;96350.44;4197155;28;5768;-64
2022/11/19 16:45:51;;;;;;;;;;;;;;;12.65;47.50;96351.25;4199497;28;5702;-64
2022/11/19 16:47:57;;;;;;;;;;;;;;;12.61;47.48;96348.22;4188150;28;5823;-64
2022/11/19 16:50:02;;;;;;;;;;;;;;;12.56;47.71;96350.69;4200523;28;5793;-64
2022/11/19 16:52:06;;;;;;;;;;;;;;;12.51;47.80;96347.88;4201854;28;5699;-65
2022/11/19 16:54:10;;;;;;;;;;;;;;;12.50;47.59;96348.91;4196833;28;5687;-64
2022/11/19 16:56:13;;;;;;;;;;;;;;;12.47;48.06;96350.16;4193328;28;5880;-65
2022/11/19 16:58:25;;;;;;;;;;;;;;;12.46;47.82;96358.34;4194918;28;5691;-64
2022/11/19 17:00:31;;;;;;;;;;;;;;;12.46;48.01;96353.03;4193852;28;5834;-66
2022/11/19 17:02:39;;;;;;;;;;;;;;;12.48;47.88;96359.75;4191974;28;5686;-65
2022/11/19 17:04:48;;;;;;;;;;;;;;;12.44;47.94;96355.06;4193494;28;5803;-64
2022/11/19 17:06:51;;;;;;;;;;;;;;;12.45;48.09;96352.19;4187975;28;5724;-64
2022/11/19 17:08:56;;;;;;;;;;;;;;;12.47;47.83;96359.97;4185175;28;5716;-65
2022/11/19 17:13:38;;;;;;;;;;;;;;;12.44;47.66;96357.72;4193069;28;6125;-65
2022/11/19 17:15:47;;;;;;;;;;;;;;;12.40;47.90;96370.59;4201624;28;5850;-65
2022/11/19 17:17:51;;;;;;;;;;;;;;;12.39;47.81;96368.16;4196514;28;5692;-65
2022/11/19 17:19:56;;;;;;;;;;;;;;;12.35;48.16;96364.34;4191722;28;5690;-65
2022/11/19 17:22:01;;;;;;;;;;;;;;;12.39;48.13;96363.69;4201715;28;5860;-64
2022/11/19 17:24:04;;;;;;;;;;;;;;;12.48;48.08;96373.00;4185857;28;5720;-65
2022/11/19 17:26:08;;;;;;;;;;;;;;;12.51;47.76;96377.06;4193256;28;5743;-65
2022/11/19 17:28:18;;;;;;;;;;;;;;;12.47;47.71;96378.53;4193286;28;5091;-65
2022/11/19 17:30:24;;;;;;;;;;;;;;;12.46;47.99;96387.50;4189036;28;5707;-65
2022/11/19 17:32:33;;;;;;;;;;;;;;;12.39;47.90;96386.72;4196994;28;5724;-64
2022/11/19 17:34:44;;;;;;;;;;;;;;;12.37;48.05;96397.53;4194519;28;5732;-65
2022/11/19 17:36:48;;;;;;;;;;;;;;;12.39;48.15;96389.38;4190620;28;5775;-65
2022/11/19 17:38:52;;;;;;;;;;;;;;;12.33;48.20;96395.50;4188710;28;5810;-65
2022/11/19 17:40:56;;;;;;;;;;;;;;;12.28;48.34;96396.16;4190524;28;5767;-65
2022/11/19 17:45:20;;;;;;;;;;;;;;;12.24;47.88;96390.50;4190500;28;5878;-66
2022/11/19 17:47:23;;;;;;;;;;;;;;;12.21;48.43;96398.84;4195232;28;5789;-65
2022/11/19 17:49:26;;;;;;;;;;;;;;;12.19;48.46;96400.91;4189695;28;5691;-64
2022/11/19 17:51:29;;;;;;;;;;;;;;;12.23;48.25;96411.88;4199420;28;5860;-64
2022/11/19 17:53:33;;;;;;;;;;;;;;;12.18;48.30;96404.56;4195853;28;5691;-65
2022/11/19 17:55:36;;;;;;;;;;;;;;;12.23;48.19;96414.53;4189632;28;5683;-65
2022/11/19 17:57:39;;;;;;;;;;;;;;;12.19;48.12;96414.16;4184603;28;5745;-65
2022/11/19 17:59:44;;;;;;;;;;;;;;;12.16;48.34;96409.28;4189600;28;5766;-65
2022/11/19 18:01:47;;;;;;;;;;;;;;;12.15;48.34;96418.25;4185834;28;5803;-65
2022/11/19 18:03:50;;;;;;;;;;;;;;;12.12;48.23;96410.75;4192647;28;5732;-65
2022/11/19 18:05:53;;;;;;;;;;;;;;;12.09;48.11;96412.97;4184424;28;5823;-65
2022/11/19 18:07:56;;;;;;;;;;;;;;;12.10;48.53;96411.94;4187489;28;5694;-66
2022/11/19 18:10:00;;;;;;;;;;;;;;;12.16;48.10;96414.59;4192960;28;5679;-65
2022/11/19 18:12:04;;;;;;;;;;;;;;;12.21;48.23;96416.59;4185418;28;5727;-65
2022/11/19 18:14:08;;;;;;;;;;;;;;;12.26;48.04;96423.91;4183845;28;5835;-65
2022/11/19 18:16:16;;;;;;;;;;;;;;;12.24;48.25;96416.19;4192716;28;5803;-64
2022/11/19 18:18:19;;;;;;;;;;;;;;;12.26;48.18;96422.06;4185412;28;5918;-64
2022/11/19 18:20:21;;;;;;;;;;;;;;;12.32;48.13;96423.06;4192281;28;5753;-64
2022/11/19 18:22:24;;;;;;;;;;;;;;;12.35;48.38;96426.09;4195146;28;5827;-64
2022/11/19 18:24:27;;;;;;;;;;;;;;;12.32;48.17;96423.84;4186488;28;5716;-64
2022/11/19 18:26:31;;;;;;;;;;;;;;;12.34;48.13;96421.81;4194307;28;5806;-64
2022/11/19 18:28:34;;;;;;;;;;;;;;;12.33;48.45;96427.31;4192318;28;5841;-64
2022/11/19 18:30:37;;;;;;;;;;;;;;;12.28;48.31;96432.47;4192540;28;5724;-64
2022/11/19 18:32:40;;;;;;;;;;;;;;;12.23;48.12;96431.28;4185987;28;5691;-65
2022/11/19 18:34:44;;;;;;;;;;;;;;;12.21;48.18;96433.28;4197367;28;5695;-65
2022/11/19 18:36:47;;;;;;;;;;;;;;;12.23;48.30;96425.97;4190534;28;5715;-65
2022/11/19 18:38:50;;;;;;;;;;;;;;;12.24;48.28;96432.91;4200433;28;5690;-64
2022/11/19 18:40:53;;;;;;;;;;;;;;;12.22;48.46;96439.41;4194262;28;5683;-64
2022/11/19 18:45:18;;;;;;;;;;;;;;;12.22;48.11;96439.41;4188202;28;5690;-64
2022/11/19 18:47:23;;;;;;;;;;;;;;;12.28;48.45;96445.72;4197936;28;5801;-64
2022/11/19 18:49:26;;;;;;;;;;;;;;;12.28;47.94;96446.53;4199924;28;5695;-64
2022/11/19 18:51:30;;;;;;;;;;;;;;;12.23;48.52;96455.13;4197964;28;5785;-65
2022/11/19 18:53:34;;;;;;;;;;;;;;;12.16;48.50;96446.38;4192222;28;5791;-65
2022/11/19 18:55:37;;;;;;;;;;;;;;;12.16;48.22;96448.22;4187274;28;5703;-64
2022/11/19 18:57:40;;;;;;;;;;;;;;;12.16;48.20;96462.28;4199101;28;5815;-65
2022/11/19 18:59:44;;;;;;;;;;;;;;;12.16;48.30;96451.69;4192728;28;6479;-65
2022/11/19 19:01:47;;;;;;;;;;;;;;;12.17;48.48;96453.31;4195950;28;5690;-65
2022/11/19 19:03:51;;;;;;;;;;;;;;;12.20;48.46;96460.00;4200145;28;5836;-65
2022/11/19 19:05:54;;;;;;;;;;;;;;;12.23;48.07;96457.78;4195205;28;5872;-64
2022/11/19 19:07:57;;;;;;;;;;;;;;;12.25;48.20;96460.22;4195012;28;5067;-63
2022/11/19 19:10:00;;;;;;;;;;;;;;;12.26;48.29;96461.03;4199736;28;5890;-64